Time;durP1;ratioP1;P1;durP2;ratioP2;P2;SDS_P1;SDS_P2;PMS_P1;PMS_P2;Temp;Humidity;BMP_temperature;BMP_pressure;BME280_temperature;BME280_humidity;BME280_pressure;Samples;Min_cycle;Max_cycle;Signal;HPM_P1;HPM_P2
2021/09/02 00:00:22;;;;;;;7.60;4.85;;;11.80;92.40;;;;;;5083293;28;20644;-67
2021/09/02 00:02:50;;;;;;;6.38;5.15;;;11.80;92.40;;;;;;5072384;28;20194;-68
2021/09/02 00:05:18;;;;;;;7.95;4.47;;;11.80;92.30;;;;;;5079859;28;20213;-67
2021/09/02 00:07:45;;;;;;;5.18;4.07;;;11.70;92.10;;;;;;5092797;28;20599;-67
2021/09/02 00:10:13;;;;;;;6.85;5.00;;;11.70;92.10;;;;;;5084950;28;20220;-67
2021/09/02 00:12:40;;;;;;;5.68;4.53;;;11.60;91.80;;;;;;5072569;28;20190;-67
2021/09/02 00:15:09;;;;;;;4.27;3.73;;;11.60;91.90;;;;;;5078083;28;20218;-67
2021/09/02 00:17:36;;;;;;;5.63;4.32;;;11.50;91.70;;;;;;5092490;28;21054;-67
2021/09/02 00:20:06;;;;;;;4.85;4.10;;;11.40;91.80;;;;;;5087213;28;20276;-67
2021/09/02 00:22:33;;;;;;;4.97;3.85;;;11.40;91.90;;;;;;5072677;28;20193;-67
2021/09/02 00:25:00;;;;;;;5.72;4.00;;;11.40;91.80;;;;;;5075429;28;20189;-67
2021/09/02 00:27:27;;;;;;;5.10;4.43;;;11.40;92.00;;;;;;5092416;28;20228;-67
2021/09/02 00:29:54;;;;;;;6.65;4.40;;;11.30;92.00;;;;;;5090214;28;20215;-69
2021/09/02 00:32:21;;;;;;;6.43;4.25;;;11.20;92.30;;;;;;5092195;28;20276;-67
2021/09/02 00:34:48;;;;;;;7.50;4.40;;;11.20;92.30;;;;;;5091275;28;20642;-67
2021/09/02 00:37:17;;;;;;;4.47;3.63;;;11.20;92.20;;;;;;5071759;28;20217;-68
2021/09/02 00:39:44;;;;;;;5.32;3.88;;;11.10;92.20;;;;;;5072304;28;20224;-68
2021/09/02 00:42:11;;;;;;;6.50;4.65;;;11.10;92.40;;;;;;5091644;28;20189;-67
2021/09/02 00:44:40;;;;;;;5.60;4.13;;;11.00;92.50;;;;;;5092744;28;20244;-67
2021/09/02 00:47:09;;;;;;;6.72;4.65;;;11.00;92.60;;;;;;5073403;28;20189;-67
2021/09/02 00:49:37;;;;;;;5.97;5.10;;;11.00;92.90;;;;;;5071892;28;20197;-69
2021/09/02 00:52:09;;;;;;;6.05;4.78;;;11.00;93.10;;;;;;5089124;28;20193;-68
2021/09/02 00:54:38;;;;;;;6.60;5.22;;;10.90;93.10;;;;;;5092119;28;20655;-67
2021/09/02 00:57:08;;;;;;;5.10;4.50;;;10.90;93.20;;;;;;5075089;28;20262;-67
2021/09/02 00:59:35;;;;;;;5.65;4.68;;;10.90;93.30;;;;;;5082655;28;20189;-67
2021/09/02 01:02:02;;;;;;;5.35;4.50;;;10.90;93.40;;;;;;5091717;28;20517;-67
2021/09/02 01:04:30;;;;;;;5.20;4.63;;;10.90;93.30;;;;;;5077940;28;20272;-67
2021/09/02 01:06:58;;;;;;;5.18;4.45;;;10.90;93.40;;;;;;5071933;28;20194;-67
2021/09/02 01:09:26;;;;;;;4.95;4.45;;;10.80;93.10;;;;;;5084372;28;20196;-67
2021/09/02 01:11:55;;;;;;;4.85;3.80;;;10.80;93.30;;;;;;5091957;28;20189;-67
2021/09/02 01:14:22;;;;;;;4.68;4.18;;;10.80;93.30;;;;;;5082779;28;20181;-67
2021/09/02 01:16:50;;;;;;;7.03;5.78;;;10.80;93.40;;;;;;5075644;28;20221;-67
2021/09/02 01:19:19;;;;;;;6.22;4.88;;;10.90;93.50;;;;;;5085584;28;20232;-67
2021/09/02 01:21:46;;;;;;;4.30;3.65;;;10.80;93.80;;;;;;5096032;28;20204;-67
2021/09/02 01:24:15;;;;;;;4.88;4.38;;;10.90;93.50;;;;;;5086810;28;20193;-67
2021/09/02 01:26:43;;;;;;;6.38;5.28;;;10.80;93.40;;;;;;5075630;28;20204;-67
2021/09/02 01:29:13;;;;;;;5.47;4.20;;;10.80;93.30;;;;;;5083168;28;20537;-67
2021/09/02 01:31:41;;;;;;;5.43;4.35;;;10.70;93.30;;;;;;5095874;28;20280;-67
2021/09/02 01:34:08;;;;;;;5.50;4.80;;;10.70;93.30;;;;;;5088339;28;20230;-67
2021/09/02 01:36:35;;;;;;;4.85;4.35;;;10.60;93.20;;;;;;5075178;28;20253;-67
2021/09/02 01:39:02;;;;;;;5.88;4.63;;;10.60;93.20;;;;;;5076432;28;20271;-67
2021/09/02 01:41:31;;;;;;;4.47;3.80;;;10.50;93.20;;;;;;5075370;28;20945;-67
2021/09/02 01:43:58;;;;;;;5.40;3.70;;;10.50;93.30;;;;;;5081594;28;20181;-67
2021/09/02 01:46:25;;;;;;;5.25;4.75;;;10.50;93.30;;;;;;5095145;28;20728;-67
2021/09/02 01:48:56;;;;;;;6.85;4.50;;;10.50;93.20;;;;;;5089583;28;20593;-67
2021/09/02 01:51:23;;;;;;;4.88;4.30;;;10.50;93.40;;;;;;5076700;28;20293;-67
2021/09/02 01:53:50;;;;;;;4.07;3.40;;;10.50;93.50;;;;;;5095466;28;20193;-67
2021/09/02 01:56:17;;;;;;;6.70;4.47;;;10.40;93.00;;;;;;5094099;28;20189;-68
2021/09/02 01:58:45;;;;;;;4.28;3.88;;;10.30;93.00;;;;;;5074898;28;20252;-67
2021/09/02 02:01:12;;;;;;;5.50;4.55;;;10.30;93.20;;;;;;5074854;28;20248;-67
2021/09/02 02:03:40;;;;;;;4.57;3.75;;;10.30;93.30;;;;;;5094053;28;20275;-67
2021/09/02 02:06:07;;;;;;;6.88;4.53;;;10.30;93.70;;;;;;5095209;28;20951;-68
2021/09/02 02:08:34;;;;;;;6.75;4.90;;;10.30;93.60;;;;;;5075894;28;20189;-67
2021/09/02 02:11:01;;;;;;;8.13;4.70;;;10.30;93.20;;;;;;5074849;28;20563;-67
2021/09/02 02:13:28;;;;;;;5.90;5.22;;;10.30;93.30;;;;;;5091292;28;20185;-70
2021/09/02 02:15:56;;;;;;;5.90;4.65;;;10.30;93.60;;;;;;5094440;28;20246;-67
2021/09/02 02:18:23;;;;;;;5.32;4.10;;;10.30;93.50;;;;;;5081816;28;20205;-67
2021/09/02 02:20:51;;;;;;;7.30;5.63;;;10.40;93.50;;;;;;5074749;28;20563;-67
2021/09/02 02:23:18;;;;;;;8.07;5.55;;;10.40;93.70;;;;;;5088710;28;20228;-67
2021/09/02 02:25:45;;;;;;;6.88;5.97;;;10.40;94.10;;;;;;5094649;28;20201;-67
2021/09/02 02:28:12;;;;;;;6.18;4.88;;;10.40;94.20;;;;;;5081049;28;20194;-67
2021/09/02 02:30:39;;;;;;;9.40;5.53;;;10.40;94.00;;;;;;5081685;28;20185;-67
2021/09/02 02:33:08;;;;;;;6.18;4.70;;;10.40;94.00;;;;;;5087741;28;20189;-66
2021/09/02 02:35:35;;;;;;;5.18;4.38;;;10.40;93.90;;;;;;5074104;28;20221;-67
2021/09/02 02:38:02;;;;;;;5.70;4.90;;;10.40;93.40;;;;;;5078964;28;20209;-67
2021/09/02 02:40:29;;;;;;;5.93;3.70;;;10.30;93.30;;;;;;5094482;28;20535;-67
2021/09/02 02:42:58;;;;;;;5.70;3.85;;;10.30;92.90;;;;;;5090008;28;20597;-67
2021/09/02 02:45:25;;;;;;;6.95;4.40;;;10.20;92.80;;;;;;5073953;28;20248;-67
2021/09/02 02:47:52;;;;;;;5.38;4.28;;;10.20;92.60;;;;;;5076500;28;20565;-67
2021/09/02 02:50:21;;;;;;;4.63;3.90;;;10.20;92.80;;;;;;5094193;28;20188;-67
2021/09/02 02:52:48;;;;;;;5.25;4.55;;;10.20;92.70;;;;;;5092123;28;20189;-67
2021/09/02 02:55:15;;;;;;;6.25;3.70;;;10.20;92.70;;;;;;5074018;28;20198;-67
2021/09/02 02:57:42;;;;;;;6.47;5.45;;;10.10;92.60;;;;;;5073867;28;20202;-66
2021/09/02 03:00:11;;;;;;;5.45;4.53;;;10.10;92.80;;;;;;5094118;28;20224;-67
2021/09/02 03:02:38;;;;;;;5.57;4.70;;;10.10;92.70;;;;;;5094016;28;20702;-67
2021/09/02 03:05:08;;;;;;;7.63;4.10;;;10.00;93.00;;;;;;5073871;28;20626;-66
2021/09/02 03:07:36;;;;;;;8.98;5.20;;;10.00;93.20;;;;;;5073711;28;20193;-67
2021/09/02 03:10:04;;;;;;;6.15;4.50;;;10.00;93.20;;;;;;5092202;28;20204;-67
2021/09/02 03:12:31;;;;;;;6.70;5.55;;;10.00;93.40;;;;;;5093898;28;20225;-67
2021/09/02 03:14:58;;;;;;;10.77;5.40;;;9.90;94.40;;;;;;5075593;28;20201;-67
2021/09/02 03:17:25;;;;;;;10.20;6.97;;;9.90;94.50;;;;;;5073224;28;20644;-67
2021/09/02 03:19:52;;;;;;;6.95;4.45;;;9.90;94.40;;;;;;5089118;28;20213;-67
2021/09/02 03:22:20;;;;;;;8.82;5.18;;;9.90;94.40;;;;;;5093722;28;20185;-67
2021/09/02 03:24:48;;;;;;;22.58;5.30;;;9.80;94.20;;;;;;5086439;28;20186;-67
2021/09/02 03:27:16;;;;;;;6.30;4.28;;;9.80;94.40;;;;;;5079606;28;20646;-67
2021/09/02 03:29:43;;;;;;;7.55;5.70;;;9.70;94.80;;;;;;5093517;28;20189;-67
2021/09/02 03:32:10;;;;;;;6.38;4.88;;;9.70;95.00;;;;;;5087891;28;20186;-68
2021/09/02 03:34:37;;;;;;;11.35;8.02;;;9.80;95.30;;;;;;5073072;28;20562;-67
2021/09/02 03:37:05;;;;;;;8.57;7.13;;;9.80;95.40;;;;;;5075825;28;20263;-67
2021/09/02 03:39:32;;;;;;;12.43;8.05;;;9.80;95.40;;;;;;5093265;28;20270;-67
2021/09/02 03:42:04;;;;;;;12.70;8.43;;;9.80;95.30;;;;;;5090617;28;20193;-67
2021/09/02 03:44:31;;;;;;;9.43;4.90;;;9.80;95.10;;;;;;5091189;28;20193;-67
2021/09/02 03:46:58;;;;;;;9.57;4.22;;;9.90;95.00;;;;;;5090881;28;20185;-66
2021/09/02 03:49:25;;;;;;;9.10;4.43;;;9.80;94.80;;;;;;5072727;28;20197;-67
2021/09/02 03:51:52;;;;;;;7.38;5.53;;;9.70;94.70;;;;;;5072670;28;20201;-66
2021/09/02 03:54:19;;;;;;;5.05;4.45;;;9.70;94.70;;;;;;5073520;28;20251;-67
2021/09/02 03:56:46;;;;;;;6.85;4.72;;;9.70;94.90;;;;;;5072783;28;20204;-67
2021/09/02 03:59:15;;;;;;;9.40;7.18;;;9.70;95.10;;;;;;5092044;28;20216;-67
2021/09/02 04:01:42;;;;;;;27.65;8.18;;;9.80;95.20;;;;;;5093276;28;20196;-67
2021/09/02 04:04:09;;;;;;;22.05;8.88;;;9.80;95.10;;;;;;5074197;28;20666;-66
2021/09/02 04:06:36;;;;;;;19.30;9.15;;;9.80;95.30;;;;;;5072909;28;20190;-67
2021/09/02 04:09:03;;;;;;;15.10;7.60;;;9.70;95.60;;;;;;5089482;28;20250;-67
2021/09/02 04:11:30;;;;;;;25.50;7.10;;;9.70;95.80;;;;;;5092962;28;20216;-67
2021/09/02 04:13:58;;;;;;;25.52;6.80;;;9.70;96.20;;;;;;5076647;28;20235;-67
2021/09/02 04:16:26;;;;;;;13.05;6.30;;;9.70;96.40;;;;;;5072680;28;20201;-67
2021/09/02 04:18:54;;;;;;;18.10;6.22;;;9.70;96.20;;;;;;5087243;28;20270;-67
2021/09/02 04:21:21;;;;;;;12.25;6.32;;;9.60;96.10;;;;;;5080530;28;20683;-68
2021/09/02 04:23:49;;;;;;;10.40;5.53;;;9.60;96.00;;;;;;5073058;28;20213;-67
2021/09/02 04:26:16;;;;;;;7.28;5.22;;;9.50;96.20;;;;;;5082371;28;20272;-67
2021/09/02 04:28:43;;;;;;;8.00;5.55;;;9.60;96.40;;;;;;5089772;28;20199;-71
2021/09/02 04:31:10;;;;;;;6.38;4.35;;;9.60;96.30;;;;;;5052036;28;20226;-66
2021/09/02 04:33:39;;;;;;;12.10;4.97;;;9.60;96.10;;;;;;5052098;28;20186;-73
2021/09/02 04:36:06;;;;;;;16.63;5.78;;;9.60;95.90;;;;;;5051968;28;20229;-67
2021/09/02 04:38:33;;;;;;;18.10;5.85;;;9.70;96.20;;;;;;5052023;28;20234;-67
2021/09/02 04:41:00;;;;;;;19.85;8.68;;;9.70;96.70;;;;;;5088178;28;20259;-67
2021/09/02 04:43:27;;;;;;;17.45;6.40;;;9.70;96.60;;;;;;5086534;28;20190;-67
2021/09/02 04:45:54;;;;;;;24.23;7.22;;;9.80;96.90;;;;;;5072184;28;20204;-69
2021/09/02 04:48:23;;;;;;;22.23;6.47;;;9.80;97.10;;;;;;5076708;28;20189;-67
2021/09/02 04:50:52;;;;;;;20.52;7.22;;;9.70;97.40;;;;;;5096590;28;20243;-67
2021/09/02 04:53:20;;;;;;;18.55;6.80;;;9.70;97.80;;;;;;5094577;28;20203;-68
2021/09/02 04:55:47;;;;;;;12.38;5.85;;;9.80;97.80;;;;;;5083866;28;20185;-70
2021/09/02 04:58:15;;;;;;;14.93;6.13;;;9.90;97.80;;;;;;5070729;28;20268;-69
2021/09/02 05:00:42;;;;;;;16.88;5.93;;;10.00;97.10;;;;;;5055903;28;20555;-68
2021/09/02 05:03:10;;;;;;;19.48;7.78;;;10.00;97.20;;;;;;5055615;28;20187;-70
2021/09/02 05:05:37;;;;;;;20.10;7.13;;;10.00;97.30;;;;;;5069238;28;20223;-66
2021/09/02 05:08:06;;;;;;;16.02;7.07;;;10.00;97.30;;;;;;5073570;28;20198;-68
2021/09/02 05:10:33;;;;;;;12.35;6.28;;;10.00;97.60;;;;;;5073118;28;20549;-67
2021/09/02 05:13:00;;;;;;;23.40;7.85;;;10.10;97.50;;;;;;5072746;28;20190;-67
2021/09/02 05:15:28;;;;;;;7.03;5.45;;;10.10;97.20;;;;;;5067278;28;20237;-67
2021/09/02 05:17:55;;;;;;;8.55;6.43;;;10.10;97.30;;;;;;5055095;28;20203;-67
2021/09/02 05:20:22;;;;;;;13.63;6.50;;;10.20;96.70;;;;;;5063794;28;20218;-67
2021/09/02 05:22:50;;;;;;;5.90;4.60;;;10.20;96.60;;;;;;5055501;28;20193;-68
2021/09/02 05:25:19;;;;;;;6.15;4.20;;;10.30;96.90;;;;;;5055192;28;20214;-72
2021/09/02 05:27:46;;;;;;;6.03;5.35;;;10.40;97.10;;;;;;5075174;28;20192;-67
2021/09/02 05:30:15;;;;;;;5.60;4.65;;;10.40;96.50;;;;;;5056892;28;20186;-67
2021/09/02 05:32:42;;;;;;;7.85;5.18;;;10.50;96.50;;;;;;5064791;28;20240;-67
2021/09/02 05:35:10;;;;;;;8.98;5.30;;;10.60;96.20;;;;;;5055095;28;20540;-69
2021/09/02 05:37:37;;;;;;;7.60;5.20;;;10.60;96.10;;;;;;5062251;28;21095;-67
2021/09/02 05:40:07;;;;;;;10.18;6.32;;;10.70;96.00;;;;;;5054887;28;20757;-67
2021/09/02 05:42:36;;;;;;;11.77;7.75;;;10.70;95.90;;;;;;5055313;28;20194;-67
2021/09/02 05:45:04;;;;;;;10.20;8.20;;;10.70;95.80;;;;;;5054959;28;20194;-67
2021/09/02 05:47:32;;;;;;;30.20;7.60;;;10.70;95.90;;;;;;5064879;28;20194;-67
2021/09/02 05:49:59;;;;;;;41.53;8.07;;;10.80;95.60;;;;;;5054926;28;20205;-67
2021/09/02 05:52:26;;;;;;;48.78;9.65;;;10.80;95.60;;;;;;5058753;28;21419;-67
2021/09/02 05:54:55;;;;;;;42.65;7.80;;;10.80;96.10;;;;;;5055233;28;20610;-67
2021/09/02 05:57:23;;;;;;;7.60;5.00;;;10.70;96.70;;;;;;5061114;28;20691;-68
2021/09/02 05:59:52;;;;;;;14.25;5.75;;;10.70;96.90;;;;;;5053508;28;20222;-67
2021/09/02 06:02:24;;;;;;;12.18;6.45;;;10.80;96.80;;;;;;5062220;28;20183;-67
2021/09/02 06:04:52;;;;;;;17.90;6.72;;;10.90;96.80;;;;;;5064493;28;20251;-67
2021/09/02 06:07:19;;;;;;;8.43;6.40;;;10.90;96.40;;;;;;5063936;28;20209;-68
2021/09/02 06:09:46;;;;;;;18.83;6.57;;;11.00;96.50;;;;;;5059657;28;20225;-68
2021/09/02 06:12:13;;;;;;;18.10;7.40;;;11.10;96.30;;;;;;5054313;28;20187;-66
2021/09/02 06:14:40;;;;;;;11.55;6.90;;;11.20;96.40;;;;;;5071870;28;20660;-69
2021/09/02 06:17:11;;;;;;;6.25;5.65;;;11.30;96.30;;;;;;5067997;28;20529;-67
2021/09/02 06:19:38;;;;;;;11.40;6.13;;;11.40;96.40;;;;;;5060272;28;20668;-68
2021/09/02 06:22:05;;;;;;;9.07;5.80;;;11.50;96.60;;;;;;5054123;28;20229;-67
2021/09/02 06:24:33;;;;;;;7.40;6.28;;;11.60;96.20;;;;;;5064706;28;20617;-68
2021/09/02 06:27:00;;;;;;;9.55;4.40;;;11.70;96.10;;;;;;5068357;28;20281;-68
2021/09/02 06:29:27;;;;;;;5.82;4.57;;;11.80;96.30;;;;;;5070613;28;20528;-67
2021/09/02 06:31:55;;;;;;;4.88;4.32;;;11.90;95.60;;;;;;5069333;28;20247;-67
2021/09/02 06:34:23;;;;;;;24.50;4.95;;;12.10;95.70;;;;;;5064812;28;20672;-69
2021/09/02 06:36:50;;;;;;;8.98;5.22;;;12.20;95.50;;;;;;5053970;28;20222;-68
2021/09/02 06:39:17;;;;;;;5.43;4.45;;;12.20;95.00;;;;;;5057123;28;20217;-68
2021/09/02 06:41:45;;;;;;;6.45;4.93;;;12.40;95.00;;;;;;5072176;28;20247;-69
2021/09/02 06:44:13;;;;;;;8.88;4.30;;;12.30;94.50;;;;;;5073718;28;20197;-68
2021/09/02 06:46:40;;;;;;;4.75;4.13;;;12.40;94.90;;;;;;5073778;28;20190;-68
2021/09/02 06:49:07;;;;;;;6.22;4.63;;;12.40;94.80;;;;;;5073701;28;20228;-68
2021/09/02 06:51:36;;;;;;;12.75;5.13;;;12.60;94.90;;;;;;5072949;28;20321;-68
2021/09/02 06:54:03;;;;;;;8.63;4.90;;;12.70;94.70;;;;;;5071537;28;20198;-68
2021/09/02 06:56:30;;;;;;;7.45;5.18;;;12.90;94.60;;;;;;5073054;28;21013;-67
2021/09/02 06:58:57;;;;;;;6.10;5.00;;;13.00;94.10;;;;;;5073297;28;20613;-67
2021/09/02 07:01:24;;;;;;;9.70;6.27;;;13.20;94.00;;;;;;5073117;28;20574;-67
2021/09/02 07:03:51;;;;;;;7.00;6.23;;;13.30;94.00;;;;;;5073105;28;20975;-67
2021/09/02 07:06:18;;;;;;;10.80;6.43;;;13.50;93.90;;;;;;5073106;28;20994;-68
2021/09/02 07:08:46;;;;;;;6.97;6.10;;;13.60;93.10;;;;;;5072847;28;20523;-67
2021/09/02 07:11:13;;;;;;;9.03;7.77;;;13.80;93.50;;;;;;5072271;28;20841;-68
2021/09/02 07:13:40;;;;;;;13.20;5.00;;;13.90;93.20;;;;;;5072755;28;20479;-67
2021/09/02 07:16:07;;;;;;;11.63;5.47;;;14.00;91.60;;;;;;5072665;28;20480;-67
2021/09/02 07:18:34;;;;;;;5.13;4.63;;;14.10;91.90;;;;;;5072900;28;20525;-67
2021/09/02 07:21:01;;;;;;;7.30;4.63;;;14.20;92.00;;;;;;5072506;28;21053;-67
2021/09/02 07:23:28;;;;;;;6.37;4.50;;;14.30;92.60;;;;;;5072753;28;20543;-67
2021/09/02 07:25:56;;;;;;;5.43;4.70;;;14.50;91.20;;;;;;5072233;28;20527;-68
2021/09/02 07:28:23;;;;;;;5.90;4.20;;;14.60;91.90;;;;;;5072816;28;20538;-67
2021/09/02 07:30:50;;;;;;;5.30;4.43;;;14.80;91.10;;;;;;5072375;28;20529;-68
2021/09/02 07:33:17;;;;;;;4.90;4.10;;;14.90;91.00;;;;;;5072581;28;20978;-66
2021/09/02 07:35:44;;;;;;;5.53;4.23;;;15.00;90.50;;;;;;5072296;28;20989;-68
2021/09/02 07:38:11;;;;;;;5.60;4.60;;;14.90;90.60;;;;;;5072494;28;21001;-67
2021/09/02 07:40:38;;;;;;;5.67;5.17;;;14.90;90.60;;;;;;5072283;28;20574;-67
2021/09/02 07:43:06;;;;;;;5.17;4.67;;;15.20;90.80;;;;;;5072465;28;20543;-67
2021/09/02 07:45:33;;;;;;;5.27;4.77;;;15.80;93.00;;;;;;5072277;28;20519;-67
2021/09/02 07:48:00;;;;;;;5.03;4.43;;;16.80;91.70;;;;;;5072364;28;21096;-68
2021/09/02 07:50:27;;;;;;;5.33;4.33;;;17.60;91.00;;;;;;5071771;28;21007;-69
2021/09/02 07:52:54;;;;;;;4.47;4.03;;;18.00;88.70;;;;;;5072226;28;20720;-68
2021/09/02 07:55:21;;;;;;;7.40;6.60;;;18.40;86.50;;;;;;5072519;28;20448;-67
2021/09/02 07:57:48;;;;;;;4.43;4.00;;;19.20;90.10;;;;;;5071830;28;20483;-68
2021/09/02 08:00:19;;;;;;;7.47;4.17;;;21.20;86.00;;;;;;5072092;28;20482;-68
2021/09/02 08:02:46;;;;;;;5.07;3.87;;;23.70;75.40;;;;;;5071589;28;20498;-68
2021/09/02 08:05:14;;;;;;;4.70;3.67;;;25.90;66.00;;;;;;5072113;28;20505;-69
2021/09/02 08:07:45;;;;;;;3.67;3.23;;;28.20;57.60;;;;;;5071800;28;20486;-68
2021/09/02 08:10:12;;;;;;;4.60;3.17;;;29.90;49.80;;;;;;5072070;28;20477;-70
2021/09/02 08:12:39;;;;;;;3.50;2.90;;;31.40;43.50;;;;;;5072114;28;20534;-69
2021/09/02 08:15:07;;;;;;;4.27;3.43;;;32.80;41.90;;;;;;5071668;28;20971;-70
2021/09/02 08:17:36;;;;;;;5.53;3.63;;;34.10;38.90;;;;;;5071916;28;20498;-69
2021/09/02 08:20:04;;;;;;;4.40;4.00;;;35.50;36.80;;;;;;5071837;28;20575;-69
2021/09/02 08:22:31;;;;;;;5.93;4.00;;;36.70;34.10;;;;;;5071865;28;20467;-69
2021/09/02 08:24:58;;;;;;;4.70;3.80;;;37.80;30.50;;;;;;5071734;28;20497;-69
2021/09/02 08:27:25;;;;;;;4.23;3.40;;;38.70;29.70;;;;;;5073136;28;20468;-70
2021/09/02 08:29:52;;;;;;;5.03;3.60;;;39.50;27.30;;;;;;5071923;28;20468;-69
2021/09/02 08:32:19;;;;;;;4.20;3.30;;;40.20;27.10;;;;;;5072425;28;20872;-70
2021/09/02 08:34:47;;;;;;;6.90;5.03;;;41.00;25.30;;;;;;5073086;28;20938;-69
2021/09/02 08:37:14;;;;;;;4.40;4.00;;;41.50;24.50;;;;;;5072922;28;20491;-70
2021/09/02 08:39:41;;;;;;;5.50;3.10;;;42.00;23.10;;;;;;5072997;28;20471;-69
2021/09/02 08:42:08;;;;;;;3.83;3.37;;;42.50;23.20;;;;;;5073066;28;20472;-70
2021/09/02 08:44:36;;;;;;;5.20;3.70;;;42.90;22.20;;;;;;5073084;28;20434;-69
2021/09/02 08:47:03;;;;;;;5.03;3.93;;;43.30;21.60;;;;;;5072859;28;20440;-69
2021/09/02 08:49:31;;;;;;;4.83;3.47;;;43.80;21.50;;;;;;5072773;28;20471;-69
2021/09/02 08:51:59;;;;;;;4.10;3.70;;;44.10;20.30;;;;;;5072695;28;20536;-70
2021/09/02 08:54:26;;;;;;;3.97;3.57;;;44.40;21.10;;;;;;5072563;28;20790;-70
2021/09/02 08:56:53;;;;;;;6.07;4.50;;;44.80;20.30;;;;;;5072702;28;20475;-70
2021/09/02 08:59:21;;;;;;;4.43;3.80;;;45.10;20.00;;;;;;5072947;28;20855;-70
2021/09/02 09:01:49;;;;;;;4.00;3.60;;;45.50;19.90;;;;;;5072697;28;20483;-70
2021/09/02 09:04:17;;;;;;;4.27;3.53;;;46.10;19.40;;;;;;5073090;28;20457;-70
2021/09/02 09:06:44;;;;;;;4.73;3.43;;;46.50;19.20;;;;;;5072891;28;20443;-71
2021/09/02 09:09:15;;;;;;;5.23;4.20;;;46.80;18.90;;;;;;5072745;28;20483;-70
2021/09/02 09:11:49;;;;;;;3.77;3.30;;;47.10;17.40;;;;;;5072847;28;20515;-69
2021/09/02 09:14:18;;;;;;;4.50;4.03;;;47.00;17.30;;;;;;5072852;28;20432;-70
2021/09/02 09:16:47;;;;;;;4.47;4.07;;;47.00;16.70;;;;;;5072582;28;20467;-70
2021/09/02 09:19:36;;;;;;;4.20;3.80;;;47.20;17.20;;;;;;5072689;28;20432;-70
2021/09/02 09:22:05;;;;;;;5.70;4.20;;;47.60;18.10;;;;;;5072301;28;20935;-70
2021/09/02 09:24:53;;;;;;;10.40;4.20;;;48.10;17.00;;;;;;5072391;28;20478;-70
2021/09/02 09:27:22;;;;;;;4.10;3.60;;;48.10;17.30;;;;;;5072453;28;20531;-69
2021/09/02 09:30:06;;;;;;;3.60;3.30;;;48.50;16.90;;;;;;5072464;28;20460;-70
2021/09/02 09:32:38;;;;;;;4.33;3.90;;;49.00;16.90;;;;;;5072464;28;20854;-69
2021/09/02 09:35:08;;;;;;;4.00;3.40;;;49.40;16.50;;;;;;5074763;28;20440;-69
2021/09/02 09:37:35;;;;;;;5.23;4.73;;;49.60;15.10;;;;;;5075615;28;20911;-70
2021/09/02 09:40:16;;;;;;;4.07;3.60;;;49.50;14.50;;;;;;5075930;28;20527;-69
2021/09/02 09:42:59;;;;;;;3.57;3.20;;;49.10;14.40;;;;;;5076118;28;20431;-70
2021/09/02 09:45:43;;;;;;;6.80;4.40;;;49.00;16.30;;;;;;5075746;28;20475;-70
2021/09/02 09:48:34;;;;;;;3.97;3.57;;;49.50;15.90;;;;;;5076094;28;20490;-70
2021/09/02 09:51:15;;;;;;;4.20;3.80;;;50.10;14.20;;;;;;5075818;28;21000;-70
2021/09/02 09:53:44;;;;;;;3.90;3.40;;;50.00;14.50;;;;;;5075590;28;20987;-70
2021/09/02 09:56:13;;;;;;;5.00;3.70;;;49.90;14.40;;;;;;5075650;28;20440;-70
2021/09/02 09:58:41;;;;;;;4.07;3.67;;;50.00;15.00;;;;;;5075802;28;20440;-69
2021/09/02 10:01:08;;;;;;;4.63;3.70;;;50.30;14.20;;;;;;5075574;28;20440;-70
2021/09/02 10:03:36;;;;;;;3.90;3.50;;;50.30;14.80;;;;;;5075639;28;20432;-69
2021/09/02 10:06:05;;;;;;;5.00;3.67;;;50.30;13.20;;;;;;5075667;28;20561;-70
2021/09/02 10:08:35;;;;;;;5.03;3.43;;;49.80;13.60;;;;;;5075383;28;20467;-69
2021/09/02 10:11:03;;;;;;;3.67;3.20;;;49.00;13.20;;;;;;5075060;28;20479;-69
2021/09/02 10:13:32;;;;;;;3.70;3.40;;;48.20;14.00;;;;;;5075611;28;20438;-70
2021/09/02 10:16:00;;;;;;;6.63;3.60;;;47.50;14.50;;;;;;5075357;28;20930;-70
2021/09/02 10:18:29;;;;;;;4.10;3.70;;;46.40;14.80;;;;;;5075400;28;20523;-70
2021/09/02 10:21:00;;;;;;;6.60;4.00;;;45.60;14.70;;;;;;5075372;28;20526;-70
2021/09/02 10:23:27;;;;;;;3.87;3.27;;;45.30;14.60;;;;;;5075353;28;20523;-70
2021/09/02 10:25:54;;;;;;;3.70;3.40;;;45.00;15.40;;;;;;5075272;28;20494;-69
2021/09/02 10:28:29;;;;;;;4.20;3.80;;;44.80;15.60;;;;;;5074882;28;20440;-71
2021/09/02 10:30:59;;;;;;;3.80;3.20;;;44.50;14.70;;;;;;5074717;28;20483;-69
2021/09/02 10:33:38;;;;;;;4.30;3.90;;;43.80;15.70;;;;;;5074969;28;20439;-69
2021/09/02 10:36:39;;;;;;;3.90;3.50;;;43.00;15.00;;;;;;5074918;28;20513;-69
2021/09/02 10:39:06;;;;;;;3.90;3.30;;;42.10;16.10;;;;;;5074981;28;20913;-69
2021/09/02 10:41:48;;;;;;;4.10;3.70;;;41.40;16.30;;;;;;5074851;28;20531;-69
2021/09/02 10:44:20;;;;;;;4.93;4.30;;;40.90;17.40;;;;;;5075027;28;20472;-69
2021/09/02 10:46:50;;;;;;;3.83;3.40;;;40.60;16.90;;;;;;5074689;28;20531;-70
2021/09/02 10:49:20;;;;;;;4.80;3.37;;;40.10;17.20;;;;;;5074912;28;20436;-69
2021/09/02 10:51:48;;;;;;;4.40;3.60;;;39.50;17.80;;;;;;5074684;28;20568;-69
2021/09/02 10:54:20;;;;;;;5.03;3.70;;;39.20;18.90;;;;;;5074815;28;20475;-71
2021/09/02 10:56:58;;;;;;;3.87;3.40;;;38.90;18.40;;;;;;5074767;28;20468;-70
2021/09/02 10:59:46;;;;;;;4.63;3.90;;;38.60;19.20;;;;;;5074803;28;20439;-69
2021/09/02 11:02:41;;;;;;;5.47;3.60;;;38.30;18.90;;;;;;5074850;28;20463;-68
2021/09/02 11:05:10;;;;;;;5.30;3.70;;;38.00;19.60;;;;;;5074346;28;20427;-70
2021/09/02 11:07:39;;;;;;;12.20;3.90;;;37.70;19.60;;;;;;5074716;28;20436;-71
2021/09/02 11:10:12;;;;;;;4.00;3.47;;;37.40;19.90;;;;;;5074884;28;20536;-69
2021/09/02 11:12:39;;;;;;;3.67;2.57;;;37.20;20.60;;;;;;5094788;28;20517;-69
2021/09/02 11:15:08;;;;;;;5.43;3.10;;;36.90;20.00;;;;;;5092512;28;20467;-69
2021/09/02 11:17:37;;;;;;;3.40;2.80;;;36.60;19.70;;;;;;5094028;28;20517;-69
2021/09/02 11:20:19;;;;;;;5.50;3.60;;;36.10;20.30;;;;;;5073844;28;20507;-70
2021/09/02 11:22:48;;;;;;;4.40;3.43;;;35.60;20.60;;;;;;5073838;28;20770;-70
2021/09/02 11:25:15;;;;;;;5.30;3.90;;;35.20;22.00;;;;;;5093149;28;20442;-69
2021/09/02 11:27:42;;;;;;;3.57;2.93;;;35.00;23.00;;;;;;5093921;28;20439;-69
2021/09/02 11:30:20;;;;;;;5.23;3.30;;;35.00;22.80;;;;;;5091556;28;20439;-69
2021/09/02 11:32:53;;;;;;;5.20;3.00;;;34.80;22.60;;;;;;5093483;28;20482;-70
2021/09/02 11:35:22;;;;;;;5.30;3.47;;;34.40;23.50;;;;;;5073710;28;20867;-69
2021/09/02 11:37:50;;;;;;;5.03;3.63;;;34.00;25.00;;;;;;5073479;28;20970;-69
2021/09/02 11:40:29;;;;;;;3.93;3.03;;;33.80;24.00;;;;;;5091160;28;20918;-69
2021/09/02 11:42:57;;;;;;;6.67;3.67;;;33.40;25.30;;;;;;5083020;28;20462;-71
2021/09/02 11:45:32;;;;;;;3.90;3.00;;;33.10;24.10;;;;;;5092154;28;20534;-68
2021/09/02 11:48:04;;;;;;;4.33;3.60;;;32.70;25.30;;;;;;5087890;28;20523;-69
2021/09/02 11:50:33;;;;;;;4.00;3.30;;;32.30;26.40;;;;;;5093625;28;20845;-69
2021/09/02 11:53:01;;;;;;;4.43;3.60;;;31.90;26.10;;;;;;5084106;28;20440;-69
2021/09/02 11:55:30;;;;;;;6.37;3.47;;;31.60;26.50;;;;;;5074233;28;20446;-69
2021/09/02 11:57:59;;;;;;;3.83;2.70;;;31.30;26.90;;;;;;5092878;28;20451;-70
2021/09/02 12:00:27;;;;;;;4.70;3.10;;;31.00;28.00;;;;;;5093007;28;20462;-72
2021/09/02 12:02:56;;;;;;;3.57;2.97;;;30.80;28.70;;;;;;5093419;28;20518;-69
2021/09/02 12:05:26;;;;;;;4.33;3.53;;;30.60;28.90;;;;;;5090334;28;20891;-70
2021/09/02 12:07:58;;;;;;;4.70;3.60;;;30.30;27.80;;;;;;5073044;28;20922;-70
2021/09/02 12:10:25;;;;;;;4.60;3.50;;;30.00;30.40;;;;;;5072871;28;20447;-69
2021/09/02 12:12:52;;;;;;;3.80;2.80;;;29.80;29.90;;;;;;5073218;28;20578;-70
2021/09/02 12:15:26;;;;;;;4.43;3.00;;;29.60;28.80;;;;;;5073131;28;20471;-70
2021/09/02 12:18:07;;;;;;;4.73;3.30;;;29.40;30.30;;;;;;5073425;28;20440;-70
2021/09/02 12:20:36;;;;;;;5.23;3.00;;;29.20;31.20;;;;;;5073224;28;20917;-69
2021/09/02 12:23:24;;;;;;;4.00;3.37;;;28.90;29.30;;;;;;5073302;28;20444;-69
2021/09/02 12:25:59;;;;;;;5.87;3.43;;;28.60;30.50;;;;;;5072933;28;20436;-70
2021/09/02 12:28:35;;;;;;;4.00;3.40;;;28.40;30.80;;;;;;5073176;28;20470;-69
2021/09/02 12:31:20;;;;;;;5.20;3.60;;;28.30;31.00;;;;;;5072782;28;20436;-69
2021/09/02 12:34:08;;;;;;;5.13;3.67;;;28.20;30.80;;;;;;5073171;28;20468;-69
2021/09/02 12:36:38;;;;;;;4.77;3.10;;;28.10;30.90;;;;;;5072876;28;20496;-69
2021/09/02 12:39:21;;;;;;;4.53;3.07;;;27.80;30.90;;;;;;5072686;28;20436;-69
2021/09/02 12:41:49;;;;;;;3.73;2.80;;;27.40;32.40;;;;;;5072792;28;20479;-68
2021/09/02 12:44:24;;;;;;;4.93;2.90;;;27.30;34.70;;;;;;5073059;28;20491;-69
2021/09/02 12:46:54;;;;;;;4.73;3.40;;;27.20;33.80;;;;;;5072403;28;20898;-69
2021/09/02 12:49:21;;;;;;;5.87;3.80;;;27.00;33.40;;;;;;5072945;28;20440;-69
2021/09/02 12:52:07;;;;;;;4.57;3.17;;;27.00;33.40;;;;;;5072675;28;20511;-69
2021/09/02 12:55:08;;;;;;;5.90;3.07;;;27.00;35.00;;;;;;5072964;28;20428;-68